Time,TemperatureF,DewpointF,PressureIn,WindDirection,WindDirectionDegrees,WindSpeedMPH,WindSpeedGustMPH,Humidity,HourlyPrecipIn,Conditions,Clouds,dailyrainin,SolarRadiationWatts/m^2,SoftwareType,DateUTC
2013-08-02 00:02:00,66.0,63.0,29.86,WSW,251,0.0,10.0,91,0.00,,,0.00,0.000000,,2013-08-02 04:02:00,
2013-08-02 00:22:00,66.0,64.0,29.85,West,281,0.0,4.0,92,0.00,,,0.00,0.000000,,2013-08-02 04:22:00,
2013-08-02 00:33:00,65.0,63.0,29.85,West,281,0.0,1.0,92,0.00,,,0.00,0.000000,,2013-08-02 04:33:00,
2013-08-02 00:53:00,65.0,63.0,29.84,West,265,0.0,1.0,92,0.00,,,0.00,0.000000,,2013-08-02 04:53:00,
2013-08-02 01:02:00,65.0,63.0,29.83,West,265,0.0,0.0,92,0.00,,,0.00,0.000000,,2013-08-02 05:02:00,
2013-08-02 01:12:00,65.0,63.0,29.83,West,265,0.0,0.0,92,0.00,,,0.00,0.000000,,2013-08-02 05:12:00,
2013-08-02 01:32:00,65.0,63.0,29.83,WSW,257,0.0,0.0,92,0.00,,,0.00,0.000000,,2013-08-02 05:32:00,
2013-08-02 01:43:00,64.0,62.0,29.83,West,272,0.0,0.0,92,0.00,,,0.00,0.000000,,2013-08-02 05:43:00,
2013-08-02 01:53:00,64.0,62.0,29.82,WNW,293,0.0,0.0,92,0.00,,,0.00,0.000000,,2013-08-02 05:53:00,
2013-08-02 02:02:00,64.0,62.0,29.82,WNW,293,0.0,1.0,92,0.00,,,0.00,0.000000,,2013-08-02 06:02:00,
2013-08-02 02:12:00,64.0,62.0,29.82,WNW,291,0.0,1.0,92,0.00,,,0.00,0.000000,,2013-08-02 06:12:00,
2013-08-02 02:22:00,64.0,62.0,29.81,WNW,291,0.0,0.0,92,0.00,,,0.00,0.000000,,2013-08-02 06:22:00,
2013-08-02 02:33:00,64.0,62.0,29.81,WNW,291,0.0,1.0,92,0.00,,,0.00,0.000000,,2013-08-02 06:33:00,
2013-08-02 02:43:00,64.0,62.0,29.81,NW,315,0.0,3.0,93,0.00,,,0.00,0.000000,,2013-08-02 06:43:00,
2013-08-02 02:52:00,64.0,62.0,29.80,NW,315,0.0,0.0,93,0.00,,,0.00,0.000000,,2013-08-02 06:52:00,
2013-08-02 03:02:00,64.0,62.0,29.79,NW,315,0.0,0.0,94,0.00,,,0.00,0.000000,,2013-08-02 07:02:00,
2013-08-02 03:12:00,64.0,62.0,29.79,NW,315,0.0,0.0,94,0.00,,,0.00,0.000000,,2013-08-02 07:12:00,
2013-08-02 03:22:00,64.0,63.0,29.79,NW,315,0.0,0.0,95,0.00,,,0.00,0.000000,,2013-08-02 07:22:00,
2013-08-02 03:33:00,64.0,63.0,29.79,NW,315,0.0,0.0,95,0.00,,,0.00,0.000000,,2013-08-02 07:33:00,
2013-08-02 03:44:00,64.0,63.0,29.79,NW,315,0.0,0.0,96,0.00,,,0.00,0.000000,,2013-08-02 07:44:00,
2013-08-02 03:53:00,64.0,63.0,29.78,NW,315,0.0,0.0,96,0.00,,,0.00,0.000000,,2013-08-02 07:53:00,
2013-08-02 04:02:00,64.0,63.0,29.79,NW,315,0.0,0.0,96,0.00,,,0.00,0.000000,,2013-08-02 08:02:00,
2013-08-02 04:12:00,64.0,63.0,29.79,NW,315,0.0,0.0,96,0.05,,,0.05,0.000000,,2013-08-02 08:12:00,
2013-08-02 04:33:00,64.0,63.0,29.79,NW,315,0.0,0.0,98,0.11,,,0.11,0.000000,,2013-08-02 08:33:00,
2013-08-02 04:43:00,64.0,64.0,29.79,NW,315,0.0,0.0,99,0.11,,,0.11,0.000000,,2013-08-02 08:43:00,
2013-08-02 04:54:00,64.0,64.0,29.79,NW,315,0.0,0.0,99,0.13,,,0.13,0.000000,,2013-08-02 08:54:00,
2013-08-02 05:02:00,64.0,64.0,29.78,NW,315,0.0,0.0,99,0.17,,,0.17,0.000000,,2013-08-02 09:02:00,
2013-08-02 05:12:00,64.0,64.0,29.78,NW,315,0.0,0.0,100,0.15,,,0.19,0.000000,,2013-08-02 09:12:00,
2013-08-02 05:23:00,64.0,64.0,29.78,NW,315,0.0,0.0,100,0.13,,,0.21,0.000000,,2013-08-02 09:23:00,
2013-08-02 05:44:00,64.0,64.0,29.78,NW,315,0.0,0.0,100,0.11,,,0.22,0.000000,,2013-08-02 09:44:00,
2013-08-02 05:53:00,64.0,64.0,29.79,NW,315,0.0,0.0,100,0.09,,,0.22,0.000000,,2013-08-02 09:53:00,
2013-08-02 06:03:00,64.0,64.0,29.79,NW,315,0.0,0.0,100,0.06,,,0.23,0.000000,,2013-08-02 10:03:00,
2013-08-02 06:12:00,64.0,64.0,29.79,NW,315,0.0,0.0,100,0.04,,,0.23,0.000000,,2013-08-02 10:12:00,
2013-08-02 06:23:00,64.0,64.0,29.79,NW,315,0.0,0.0,100,0.04,,,0.26,0.000000,,2013-08-02 10:23:00,
2013-08-02 06:33:00,63.0,63.0,29.79,NW,315,0.0,0.0,100,0.30,,,0.52,0.000000,,2013-08-02 10:33:00,
2013-08-02 06:43:00,63.0,63.0,29.79,NW,315,0.0,0.0,100,0.32,,,0.54,0.000000,,2013-08-02 10:43:00,
2013-08-02 06:52:00,63.0,63.0,29.80,NW,315,0.0,0.0,100,0.33,,,0.55,0.000000,,2013-08-02 10:52:00,
2013-08-02 07:02:00,63.0,63.0,29.80,NW,315,0.0,0.0,100,0.32,,,0.55,0.000000,,2013-08-02 11:02:00,
2013-08-02 07:12:00,63.0,63.0,29.80,NW,315,0.0,0.0,100,0.32,,,0.55,0.000000,,2013-08-02 11:12:00,
2013-08-02 07:23:00,63.0,63.0,29.80,NW,315,0.0,0.0,100,0.32,,,0.58,5.000000,,2013-08-02 11:23:00,
2013-08-02 07:33:00,63.0,63.0,29.80,NW,315,0.0,0.0,100,0.13,,,0.58,5.000000,,2013-08-02 11:33:00,
2013-08-02 07:43:00,63.0,63.0,29.80,NW,315,0.0,0.0,100,0.05,,,0.58,54.000000,,2013-08-02 11:43:00,
2013-08-02 07:52:00,64.0,64.0,29.80,NW,315,0.0,0.0,100,0.04,,,0.58,54.000000,,2013-08-02 11:52:00,
2013-08-02 08:02:00,64.0,64.0,29.80,NW,315,0.0,0.0,100,0.03,,,0.58,65.000000,,2013-08-02 12:02:00,
2013-08-02 08:12:00,64.0,64.0,29.80,NW,315,0.0,0.0,100,0.03,,,0.58,97.000000,,2013-08-02 12:12:00,
2013-08-02 08:22:00,64.0,64.0,29.80,NW,315,0.0,0.0,100,0.03,,,0.58,97.000000,,2013-08-02 12:22:00,
2013-08-02 08:33:00,64.0,64.0,29.80,NW,315,0.0,0.0,100,0.03,,,0.58,97.000000,,2013-08-02 12:33:00,
2013-08-02 08:43:00,64.0,64.0,29.80,NW,315,0.0,0.0,100,0.03,,,0.58,97.000000,,2013-08-02 12:43:00,
2013-08-02 08:52:00,64.0,64.0,29.80,NW,315,0.0,0.0,100,0.03,,,0.58,97.000000,,2013-08-02 12:52:00,
2013-08-02 09:12:00,66.0,66.0,29.80,NW,315,0.0,0.0,100,0.00,,,0.58,204.000000,,2013-08-02 13:12:00,
2013-08-02 09:22:00,66.0,66.0,29.80,NW,315,0.0,0.0,100,0.00,,,0.58,204.000000,,2013-08-02 13:22:00,
2013-08-02 09:33:00,66.0,66.0,29.80,NW,315,0.0,0.0,100,0.00,,,0.58,353.000000,,2013-08-02 13:33:00,
2013-08-02 09:43:00,68.0,68.0,29.80,NW,315,0.0,0.0,100,0.00,,,0.58,193.000000,,2013-08-02 13:43:00,
2013-08-02 10:02:00,67.0,67.0,29.80,NW,315,0.0,0.0,100,0.00,,,0.58,589.000000,,2013-08-02 14:02:00,
2013-08-02 10:22:00,69.0,68.0,29.80,North,349,0.0,1.0,98,0.00,,,0.58,784.000000,,2013-08-02 14:22:00,
2013-08-02 10:32:00,71.0,69.0,29.80,NE,37,0.0,1.0,95,0.00,,,0.58,884.000000,,2013-08-02 14:32:00,
2013-08-02 10:43:00,71.0,69.0,29.80,NNE,23,0.0,1.0,92,0.00,,,0.58,253.000000,,2013-08-02 14:43:00,
2013-08-02 10:53:00,72.0,68.0,29.80,NE,37,0.0,1.0,88,0.00,,,0.58,404.000000,,2013-08-02 14:53:00,
2013-08-02 11:03:00,73.0,67.0,29.80,NW,314,0.0,2.0,82,0.00,,,0.58,974.000000,,2013-08-02 15:03:00,
2013-08-02 11:12:00,71.0,67.0,29.80,NNW,338,0.0,1.0,86,0.00,,,0.58,884.000000,,2013-08-02 15:12:00,
2013-08-02 11:22:00,73.0,68.0,29.80,NNE,24,0.0,3.0,85,0.00,,,0.58,865.000000,,2013-08-02 15:22:00,
2013-08-02 11:32:00,73.0,67.0,29.80,West,279,0.0,1.0,82,0.00,,,0.58,835.000000,,2013-08-02 15:32:00,
2013-08-02 11:43:00,74.0,67.0,29.80,WNW,290,0.0,1.0,78,0.00,,,0.58,221.000000,,2013-08-02 15:43:00,
2013-08-02 11:52:00,75.0,68.0,29.80,WNW,290,0.0,1.0,80,0.00,,,0.58,1020.000000,,2013-08-02 15:52:00,
2013-08-02 12:02:00,75.0,68.0,29.80,NE,38,0.0,3.0,79,0.00,,,0.58,909.000000,,2013-08-02 16:02:00,
2013-08-02 12:22:00,77.0,68.0,29.81,ENE,66,1.0,2.0,74,0.00,,,0.58,960.000000,,2013-08-02 16:22:00,
2013-08-02 12:32:00,77.0,67.0,29.80,North,349,0.0,2.0,72,0.00,,,0.58,963.000000,,2013-08-02 16:32:00,
2013-08-02 12:43:00,76.0,65.0,29.80,NW,314,0.0,2.0,69,0.00,,,0.58,926.000000,,2013-08-02 16:43:00,
2013-08-02 12:52:00,78.0,66.0,29.80,North,349,0.0,4.0,66,0.00,,,0.58,958.000000,,2013-08-02 16:52:00,
2013-08-02 13:02:00,78.0,67.0,29.80,North,357,0.0,3.0,69,0.00,,,0.58,1005.000000,,2013-08-02 17:02:00,
2013-08-02 13:12:00,78.0,66.0,29.80,North,354,0.0,3.0,66,0.00,,,0.58,1069.000000,,2013-08-02 17:12:00,
2013-08-02 13:35:00,77.0,64.0,29.79,WSW,246,1.0,5.0,64,0.00,,,0.58,935.000000,,2013-08-02 17:35:00,
2013-08-02 13:43:00,79.0,65.0,29.79,WSW,248,0.0,3.0,62,0.00,,,0.58,919.000000,,2013-08-02 17:43:00,
2013-08-02 13:52:00,80.0,67.0,29.79,NNW,330,0.0,2.0,64,0.00,,,0.58,932.000000,,2013-08-02 17:52:00,
2013-08-02 14:12:00,80.0,64.0,29.79,NE,53,0.0,3.0,58,0.00,,,0.58,889.000000,,2013-08-02 18:12:00,
2013-08-02 14:43:00,79.0,61.0,29.78,NNW,343,0.0,6.0,54,0.00,,,0.58,856.000000,,2013-08-02 18:43:00,
2013-08-02 14:52:00,80.0,63.0,29.78,NNW,327,2.0,6.0,57,0.00,,,0.58,837.000000,,2013-08-02 18:52:00,
2013-08-02 15:32:00,79.0,63.0,29.79,SE,136,0.0,3.0,58,0.00,,,0.58,190.000000,,2013-08-02 19:32:00,
2013-08-02 15:43:00,79.0,63.0,29.79,NE,38,0.0,3.0,59,0.00,,,0.58,770.000000,,2013-08-02 19:43:00,
2013-08-02 15:52:00,79.0,63.0,29.79,ENE,67,0.0,3.0,59,0.00,,,0.58,123.000000,,2013-08-02 19:52:00,
2013-08-02 16:02:00,78.0,63.0,29.79,NNE,32,0.0,3.0,60,0.00,,,0.58,174.000000,,2013-08-02 20:02:00,
2013-08-02 16:43:00,78.0,62.0,29.78,WNW,293,1.0,3.0,58,0.00,,,0.58,258.000000,,2013-08-02 20:43:00,
2013-08-02 16:52:00,78.0,62.0,29.78,North,6,0.0,2.0,59,0.00,,,0.58,243.000000,,2013-08-02 20:52:00,
2013-08-02 17:03:00,78.0,61.0,29.78,NW,307,0.0,3.0,55,0.00,,,0.58,221.000000,,2013-08-02 21:03:00,
2013-08-02 17:22:00,78.0,60.0,29.78,NW,314,1.0,3.0,54,0.00,,,0.58,487.000000,,2013-08-02 21:22:00,
2013-08-02 17:53:00,77.0,58.0,29.78,SW,220,0.0,3.0,52,0.00,,,0.58,49.000000,,2013-08-02 21:53:00,
2013-08-02 18:03:00,77.0,61.0,29.79,WNW,293,0.0,2.0,57,0.00,,,0.58,47.000000,,2013-08-02 22:03:00,
2013-08-02 18:22:00,76.0,61.0,29.79,ESE,103,0.0,1.0,59,0.00,,,0.58,51.000000,,2013-08-02 22:22:00,
2013-08-02 18:32:00,76.0,63.0,29.79,ESE,103,0.0,0.0,64,0.00,,,0.58,111.000000,,2013-08-02 22:32:00,
2013-08-02 18:43:00,76.0,64.0,29.79,NW,315,0.0,1.0,66,0.00,,,0.58,32.000000,,2013-08-02 22:43:00,
2013-08-02 18:52:00,76.0,64.0,29.79,NW,315,0.0,0.0,66,0.00,,,0.58,33.000000,,2013-08-02 22:52:00,
2013-08-02 19:02:00,75.0,63.0,29.80,NW,315,0.0,0.0,66,0.00,,,0.58,42.000000,,2013-08-02 23:02:00,
2013-08-02 19:12:00,75.0,64.0,29.80,NW,315,0.0,1.0,68,0.00,,,0.58,32.000000,,2013-08-02 23:12:00,
2013-08-02 19:22:00,74.0,63.0,29.80,NW,315,0.0,0.0,68,0.00,,,0.58,26.000000,,2013-08-02 23:22:00,
2013-08-02 19:32:00,74.0,63.0,29.80,NW,315,0.0,0.0,69,0.00,,,0.58,19.000000,,2013-08-02 23:32:00,
2013-08-02 19:43:00,73.0,63.0,29.80,NW,315,0.0,0.0,71,0.00,,,0.58,11.000000,,2013-08-02 23:43:00,
2013-08-02 19:53:00,73.0,65.0,29.80,NW,315,0.0,0.0,75,0.00,,,0.58,9.000000,,2013-08-02 23:53:00,
2013-08-02 20:02:00,72.0,64.0,29.81,NW,315,0.0,0.0,75,0.00,,,0.58,7.000000,,2013-08-03 00:02:00,
2013-08-02 20:12:00,71.0,63.0,29.81,NW,315,0.0,0.0,77,0.00,,,0.58,0.000000,,2013-08-03 00:12:00,
2013-08-02 20:22:00,71.0,64.0,29.81,NW,315,0.0,0.0,78,0.00,,,0.58,0.000000,,2013-08-03 00:22:00,
2013-08-02 20:33:00,71.0,64.0,29.82,NW,315,0.0,0.0,78,0.00,,,0.58,0.000000,,2013-08-03 00:33:00,
2013-08-02 20:43:00,70.0,64.0,29.82,NW,315,0.0,0.0,80,0.00,,,0.58,0.000000,,2013-08-03 00:43:00,
2013-08-02 20:52:00,70.0,64.0,29.82,NW,315,0.0,0.0,81,0.00,,,0.58,0.000000,,2013-08-03 00:52:00,
2013-08-02 21:03:00,70.0,64.0,29.82,NW,315,0.0,0.0,81,0.00,,,0.58,0.000000,,2013-08-03 01:03:00,
2013-08-02 21:12:00,70.0,64.0,29.82,NW,315,0.0,0.0,80,0.00,,,0.58,0.000000,,2013-08-03 01:12:00,
2013-08-02 21:22:00,70.0,64.0,29.83,NW,315,0.0,0.0,80,0.00,,,0.58,0.000000,,2013-08-03 01:22:00,
2013-08-02 21:33:00,70.0,64.0,29.83,NW,315,0.0,0.0,80,0.00,,,0.58,0.000000,,2013-08-03 01:33:00,
2013-08-02 21:42:00,69.0,63.0,29.83,NW,315,0.0,0.0,81,0.00,,,0.58,0.000000,,2013-08-03 01:42:00,
2013-08-02 21:53:00,69.0,63.0,29.83,NW,315,0.0,0.0,81,0.00,,,0.58,0.000000,,2013-08-03 01:53:00,
2013-08-02 22:02:00,69.0,63.0,29.83,NW,315,0.0,0.0,80,0.00,,,0.58,0.000000,,2013-08-03 02:02:00,
2013-08-02 22:12:00,69.0,63.0,29.83,NW,315,0.0,1.0,82,0.00,,,0.58,0.000000,,2013-08-03 02:12:00,
2013-08-02 22:22:00,68.0,63.0,29.83,NW,315,0.0,0.0,84,0.00,,,0.58,0.000000,,2013-08-03 02:22:00,
2013-08-02 22:32:00,68.0,63.0,29.84,NW,315,0.0,0.0,84,0.00,,,0.58,0.000000,,2013-08-03 02:32:00,
2013-08-02 22:43:00,68.0,63.0,29.84,NW,315,0.0,0.0,84,0.00,,,0.58,0.000000,,2013-08-03 02:43:00,
2013-08-02 22:52:00,68.0,63.0,29.85,NW,315,0.0,1.0,83,0.00,,,0.58,0.000000,,2013-08-03 02:52:00,
2013-08-02 23:32:00,67.0,64.0,29.85,NW,313,0.0,1.0,90,0.00,,,0.58,0.000000,,2013-08-03 03:32:00,
2013-08-02 23:43:00,67.0,64.0,29.85,NW,313,0.0,1.0,90,0.00,,,0.58,0.000000,,2013-08-03 03:43:00,
2013-08-02 23:53:00,67.0,64.0,29.85,NW,313,0.0,1.0,90,0.00,,,0.58,0.000000,,2013-08-03 03:53:00,